createdAt,value
2018-07-14T00:00:29.693Z,60.40
2018-07-14T00:03:00.850Z,61.00
2018-07-14T00:05:31.955Z,61.20
2018-07-14T00:08:03.453Z,61.10
2018-07-14T00:10:34.557Z,61.00
2018-07-14T00:13:05.986Z,60.90
2018-07-14T00:15:37.243Z,61.00
2018-07-14T00:18:08.503Z,61.20
2018-07-14T00:20:39.871Z,61.40
2018-07-14T00:23:11.703Z,61.30
2018-07-14T00:25:47.306Z,61.70
2018-07-14T00:28:18.614Z,61.90
2018-07-14T00:30:49.819Z,62.40
2018-07-14T00:33:20.782Z,62.60
2018-07-14T00:35:51.720Z,63.00
2018-07-14T00:38:22.823Z,63.10
2018-07-14T00:40:54.007Z,63.30
2018-07-14T00:43:25.146Z,63.30
2018-07-14T00:45:56.722Z,62.90
2018-07-14T00:48:28.254Z,62.60
2018-07-14T00:51:00.815Z,62.80
2018-07-14T00:53:32.269Z,62.50
2018-07-14T00:56:03.361Z,62.50
2018-07-14T00:58:34.515Z,62.50
2018-07-14T01:01:05.867Z,61.50
2018-07-14T01:03:38.087Z,61.70
2018-07-14T01:06:09.252Z,61.20
2018-07-14T01:08:40.165Z,61.20
2018-07-14T01:11:11.476Z,61.00
2018-07-14T01:13:42.572Z,61.60
2018-07-14T01:16:14.404Z,62.10
2018-07-14T01:18:47.209Z,61.40
2018-07-14T01:21:18.312Z,61.20
2018-07-14T01:23:49.535Z,61.30
2018-07-14T01:26:20.994Z,61.50
2018-07-14T01:28:52.217Z,61.40
2018-07-14T01:31:23.390Z,61.60
2018-07-14T01:33:54.595Z,61.90
2018-07-14T01:36:26.104Z,61.90
2018-07-14T01:39:01.365Z,62.10
2018-07-14T01:41:34.726Z,62.20
2018-07-14T01:44:07.870Z,62.30
2018-07-14T01:46:39.110Z,62.60
2018-07-14T01:49:10.794Z,63.20
2018-07-14T01:51:43.111Z,63.60
2018-07-14T01:54:14.928Z,63.80
2018-07-14T01:56:46.504Z,64.40
2018-07-14T01:59:18.388Z,63.80
2018-07-14T02:01:50.000Z,64.10
2018-07-14T02:04:21.772Z,64.30
2018-07-14T02:06:53.926Z,64.10
2018-07-14T02:09:25.460Z,64.30
2018-07-14T02:11:56.941Z,65.00
2018-07-14T02:14:28.900Z,64.80
2018-07-14T02:19:30.982Z,64.90
2018-07-14T02:22:02.931Z,64.40
2018-07-14T02:24:34.391Z,64.70
2018-07-14T02:27:07.004Z,65.00
2018-07-14T02:29:38.661Z,65.40
2018-07-14T02:32:10.079Z,65.60
2018-07-14T02:34:41.543Z,65.70
2018-07-14T02:37:13.726Z,66.00
2018-07-14T02:39:45.455Z,66.20
2018-07-14T02:42:17.056Z,66.20
2018-07-14T02:44:48.530Z,66.80
2018-07-14T02:47:20.580Z,66.80
2018-07-14T02:49:52.222Z,67.20
2018-07-14T02:52:23.709Z,67.70
2018-07-14T02:54:55.616Z,66.90
2018-07-14T02:57:27.313Z,66.90
2018-07-14T02:59:59.074Z,66.70
2018-07-14T03:02:30.805Z,66.80
2018-07-14T03:05:02.317Z,67.30
2018-07-14T03:10:05.275Z,68.20
2018-07-14T03:12:36.537Z,68.40
2018-07-14T03:15:08.228Z,68.30
2018-07-14T03:17:39.789Z,68.80
2018-07-14T03:20:11.548Z,69.40
2018-07-14T03:22:43.114Z,69.10
2018-07-14T03:25:14.683Z,69.10
2018-07-14T03:27:46.282Z,69.60
2018-07-14T03:30:17.793Z,69.50
2018-07-14T03:32:49.563Z,70.10
2018-07-14T03:35:21.113Z,69.70
2018-07-14T03:37:53.021Z,69.70
2018-07-14T03:40:24.518Z,69.70
2018-07-14T03:42:56.000Z,70.60
2018-07-14T03:45:28.081Z,70.20
2018-07-14T03:50:30.505Z,70.40
2018-07-14T03:53:01.895Z,70.50
2018-07-14T03:55:33.352Z,70.90
2018-07-14T03:58:04.787Z,70.90
2018-07-14T04:00:36.339Z,70.90
2018-07-14T04:03:08.863Z,71.00
2018-07-14T04:05:41.400Z,70.90
2018-07-14T04:08:13.323Z,70.90
2018-07-14T04:10:44.680Z,71.00
2018-07-14T04:13:16.218Z,71.00
2018-07-14T04:15:47.683Z,71.10
2018-07-14T04:18:19.180Z,71.20
2018-07-14T04:20:50.755Z,71.80
2018-07-14T04:23:22.141Z,71.60
2018-07-14T04:25:53.682Z,71.80
2018-07-14T04:28:25.602Z,72.20
2018-07-14T04:30:56.947Z,72.50
2018-07-14T04:33:28.445Z,73.10
2018-07-14T04:36:00.393Z,73.10
2018-07-14T04:38:32.011Z,72.80
2018-07-14T04:41:03.483Z,73.40
2018-07-14T04:43:34.951Z,73.70
2018-07-14T04:46:07.024Z,73.10
2018-07-14T04:48:38.480Z,72.20
2018-07-14T04:51:10.077Z,71.50
2018-07-14T04:53:41.391Z,71.30
2018-07-14T04:56:12.991Z,71.40
2018-07-14T04:58:44.645Z,70.40
2018-07-14T05:01:16.172Z,70.40
2018-07-14T05:03:47.592Z,70.60
2018-07-14T05:06:19.100Z,70.90
2018-07-14T05:08:50.284Z,70.80
2018-07-14T05:11:21.578Z,70.60
2018-07-14T05:13:53.044Z,70.60
2018-07-14T05:16:24.568Z,70.30
2018-07-14T05:18:56.032Z,70.40
2018-07-14T05:21:27.856Z,70.50
2018-07-14T05:23:59.501Z,70.40
2018-07-14T05:26:30.999Z,69.90
2018-07-14T05:29:02.341Z,69.00
2018-07-14T05:31:34.079Z,69.10
2018-07-14T05:34:05.863Z,69.10
2018-07-14T05:36:37.185Z,69.50
2018-07-14T05:39:08.927Z,70.10
2018-07-14T05:41:40.629Z,70.20
2018-07-14T05:44:11.960Z,70.10
2018-07-14T05:46:43.440Z,70.20
2018-07-14T05:49:14.988Z,70.00
2018-07-14T05:51:46.219Z,70.00
2018-07-14T05:54:17.830Z,69.40
2018-07-14T05:56:49.293Z,69.90
2018-07-14T05:59:20.862Z,70.00
2018-07-14T06:01:52.546Z,69.30
2018-07-14T06:04:24.065Z,68.60
2018-07-14T06:06:55.697Z,67.90
2018-07-14T06:09:26.998Z,68.10
2018-07-14T06:11:58.370Z,68.30
2018-07-14T06:14:30.119Z,67.90
2018-07-14T06:17:02.037Z,68.30
2018-07-14T06:19:33.739Z,68.80
2018-07-14T06:22:05.447Z,68.80
2018-07-14T06:24:37.125Z,68.50
2018-07-14T06:27:08.878Z,69.00
2018-07-14T06:29:40.207Z,69.10
2018-07-14T06:32:11.560Z,69.60
2018-07-14T06:34:43.270Z,69.70
2018-07-14T06:37:15.311Z,70.00
2018-07-14T06:39:46.600Z,69.50
2018-07-14T06:42:18.534Z,69.70
2018-07-14T06:44:50.158Z,69.90
2018-07-14T06:47:21.835Z,70.30
2018-07-14T06:49:53.319Z,70.00
2018-07-14T06:52:25.266Z,70.90
2018-07-14T06:54:56.700Z,71.10
2018-07-14T06:57:28.325Z,70.40
2018-07-14T06:59:59.871Z,70.90
2018-07-14T07:02:31.693Z,72.60
2018-07-14T07:05:03.444Z,71.60
2018-07-14T07:07:35.130Z,71.70
2018-07-14T07:10:06.405Z,71.90
2018-07-14T07:12:37.759Z,75.60
2018-07-14T07:15:09.413Z,75.30
2018-07-14T07:17:40.962Z,77.90
2018-07-14T07:20:12.583Z,79.40
2018-07-14T07:22:43.853Z,80.90
2018-07-14T07:25:15.312Z,82.70
2018-07-14T07:27:46.963Z,84.70
2018-07-14T07:30:18.454Z,87.20
2018-07-14T07:32:49.855Z,88.70
2018-07-14T07:35:21.332Z,89.50
2018-07-14T07:37:52.684Z,89.60
2018-07-14T07:40:24.144Z,89.70
2018-07-14T07:42:55.877Z,90.40
2018-07-14T07:45:27.067Z,90.90
2018-07-14T07:47:58.844Z,91.40
2018-07-14T07:50:30.352Z,91.20
2018-07-14T07:53:01.660Z,91.50
2018-07-14T07:55:33.746Z,91.70
2018-07-14T07:58:05.291Z,91.90
2018-07-14T08:00:36.906Z,92.20
2018-07-14T08:03:08.411Z,92.40
2018-07-14T08:05:39.875Z,92.30
2018-07-14T08:08:11.819Z,92.50
2018-07-14T08:10:43.920Z,92.60
2018-07-14T08:13:15.271Z,92.80
2018-07-14T08:15:46.772Z,93.20
2018-07-14T08:18:19.095Z,93.50
2018-07-14T08:20:50.873Z,93.60
2018-07-14T08:23:22.954Z,93.90
2018-07-14T08:25:54.523Z,94.00
2018-07-14T08:28:26.007Z,93.80
2018-07-14T08:30:57.722Z,93.80
2018-07-14T08:33:29.398Z,94.20
2018-07-14T08:36:01.096Z,94.50
2018-07-14T08:38:32.926Z,94.40
2018-07-14T08:41:04.317Z,94.50
2018-07-14T08:43:36.003Z,94.70
2018-07-14T08:46:07.475Z,94.70
2018-07-14T08:48:39.228Z,94.50
2018-07-14T08:51:11.027Z,94.70
2018-07-14T08:53:42.668Z,94.70
2018-07-14T08:56:14.394Z,94.80
2018-07-14T08:58:46.024Z,94.90
2018-07-14T09:01:17.706Z,95.00
2018-07-14T09:03:49.514Z,94.90
2018-07-14T09:06:21.298Z,95.20
2018-07-14T09:08:52.623Z,94.80
2018-07-14T09:11:24.357Z,95.10
2018-07-14T09:13:56.102Z,95.50
2018-07-14T09:16:27.816Z,95.50
2018-07-14T09:18:59.236Z,95.70
2018-07-14T09:21:31.018Z,95.20
2018-07-14T09:24:02.419Z,95.00
2018-07-14T09:26:34.361Z,94.90
2018-07-14T09:29:05.895Z,95.10
2018-07-14T09:31:37.772Z,95.20
2018-07-14T09:34:09.371Z,95.20
2018-07-14T09:36:40.799Z,95.10
2018-07-14T09:39:12.276Z,95.30
2018-07-14T09:41:43.682Z,95.30
2018-07-14T09:44:15.276Z,95.40
2018-07-14T09:46:47.018Z,95.60
2018-07-14T09:49:18.966Z,95.70
2018-07-14T09:51:50.326Z,95.80
2018-07-14T09:54:22.060Z,95.90
2018-07-14T09:56:53.733Z,96.10
2018-07-14T09:59:25.186Z,96.20
2018-07-14T10:01:56.568Z,96.30
2018-07-14T10:06:58.630Z,96.50
2018-07-14T10:09:30.415Z,96.60
2018-07-14T10:12:01.688Z,96.60
2018-07-14T10:14:33.487Z,96.70
2018-07-14T10:17:05.194Z,96.70
2018-07-14T10:19:36.593Z,96.70
2018-07-14T10:22:08.221Z,96.70
2018-07-14T10:24:39.528Z,96.80
2018-07-14T10:27:10.644Z,96.90
2018-07-14T10:29:42.131Z,96.70
2018-07-14T10:32:13.553Z,96.70
2018-07-14T10:34:45.267Z,96.60
2018-07-14T10:37:16.818Z,96.80
2018-07-14T10:39:48.461Z,96.90
2018-07-14T10:42:20.411Z,97.10
2018-07-14T10:44:52.241Z,96.80
2018-07-14T10:47:23.927Z,96.90
2018-07-14T10:49:55.719Z,97.00
2018-07-14T10:52:27.183Z,97.00
2018-07-14T10:54:58.561Z,97.00
2018-07-14T10:57:30.124Z,96.90
2018-07-14T11:00:01.563Z,97.10
2018-07-14T11:02:33.674Z,96.90
2018-07-14T11:05:05.199Z,97.00
2018-07-14T11:07:36.758Z,96.90
2018-07-14T11:10:08.465Z,96.90
2018-07-14T11:12:40.450Z,97.00
2018-07-14T11:15:11.994Z,96.70
2018-07-14T11:17:43.583Z,96.90
2018-07-14T11:20:14.719Z,96.80
2018-07-14T11:22:46.424Z,96.70
2018-07-14T11:25:17.488Z,96.70
2018-07-14T11:27:49.011Z,96.50
2018-07-14T11:30:20.459Z,96.50
2018-07-14T11:32:51.836Z,96.30
2018-07-14T11:35:23.165Z,96.20
2018-07-14T11:37:54.344Z,96.50
2018-07-14T11:40:25.485Z,96.70
2018-07-14T11:42:56.607Z,96.70
2018-07-14T11:45:28.294Z,96.00
2018-07-14T11:47:59.369Z,96.70
2018-07-14T11:50:30.903Z,96.70
2018-07-14T11:53:01.881Z,96.20
2018-07-14T11:55:33.555Z,95.70
2018-07-14T11:58:05.008Z,96.30
2018-07-14T12:00:36.353Z,96.20
2018-07-14T12:03:07.842Z,96.10
2018-07-14T12:05:39.182Z,96.00
2018-07-14T12:08:10.617Z,96.20
2018-07-14T12:10:42.170Z,95.80
2018-07-14T12:13:13.604Z,95.80
2018-07-14T12:15:46.008Z,96.20
2018-07-14T12:18:18.022Z,95.00
2018-07-14T12:20:49.567Z,95.70
2018-07-14T12:23:20.984Z,96.20
2018-07-14T12:25:53.148Z,95.40
2018-07-14T12:28:24.980Z,95.50
2018-07-14T12:30:56.345Z,95.10
2018-07-14T12:33:27.840Z,95.00
2018-07-14T12:35:59.593Z,94.70
2018-07-14T12:38:31.587Z,93.80
2018-07-14T12:41:03.065Z,94.20
2018-07-14T12:43:34.322Z,94.50
2018-07-14T12:46:06.005Z,94.50
2018-07-14T12:48:37.055Z,94.70
2018-07-14T12:51:08.796Z,94.40
2018-07-14T12:53:40.730Z,94.80
2018-07-14T12:56:11.982Z,94.10
2018-07-14T13:01:14.020Z,94.10
2018-07-14T13:03:46.122Z,94.20
2018-07-14T13:06:17.647Z,94.00
2018-07-14T13:08:49.221Z,93.50
2018-07-14T13:11:20.710Z,93.40
2018-07-14T13:13:52.635Z,93.40
2018-07-14T13:16:24.374Z,93.80
2018-07-14T13:19:08.371Z,93.40
2018-07-14T13:21:45.496Z,93.40
2018-07-14T13:24:25.221Z,93.40
2018-07-14T13:27:02.685Z,93.20
2018-07-14T13:29:38.019Z,92.40
2018-07-14T13:32:10.227Z,92.30
2018-07-14T13:34:42.028Z,93.10
2018-07-14T13:37:13.196Z,92.50
2018-07-14T13:39:45.422Z,92.90
2018-07-14T13:42:16.672Z,93.10
2018-07-14T13:44:52.196Z,92.30
2018-07-14T13:47:24.006Z,91.70
2018-07-14T13:49:59.030Z,92.40
2018-07-14T13:52:31.162Z,92.00
2018-07-14T13:55:06.638Z,91.00
2018-07-14T13:57:38.601Z,90.90
2018-07-14T14:00:14.300Z,90.40
2018-07-14T14:02:46.021Z,91.30
2018-07-14T14:07:49.179Z,89.50
2018-07-14T14:10:20.882Z,89.30
2018-07-14T14:15:22.985Z,88.70
2018-07-14T14:17:54.620Z,86.40
2018-07-14T14:20:26.039Z,87.10
2018-07-14T14:22:57.315Z,87.90
2018-07-14T14:25:28.799Z,83.60
2018-07-14T14:28:00.360Z,83.10
2018-07-14T14:30:31.794Z,83.40
2018-07-14T14:33:04.384Z,83.70
2018-07-14T14:35:36.097Z,82.90
2018-07-14T14:38:07.653Z,82.10
2018-07-14T14:40:39.084Z,81.10
2018-07-14T14:43:10.153Z,82.80
2018-07-14T14:45:41.324Z,79.90
2018-07-14T14:48:12.891Z,80.50
2018-07-14T14:50:44.401Z,78.10
2018-07-14T14:53:15.774Z,76.00
2018-07-14T14:55:46.801Z,76.40
2018-07-14T14:58:17.797Z,79.70
2018-07-14T15:00:49.125Z,77.90
2018-07-14T15:03:20.637Z,75.00
2018-07-14T15:05:51.823Z,73.30
2018-07-14T15:08:22.823Z,74.60
2018-07-14T15:10:54.259Z,74.10
2018-07-14T15:13:25.719Z,76.40
2018-07-14T15:15:56.943Z,75.30
2018-07-14T15:18:28.717Z,76.40
2018-07-14T15:21:00.428Z,71.70
2018-07-14T15:23:31.827Z,72.50
2018-07-14T15:26:03.169Z,72.20
2018-07-14T15:28:34.558Z,74.10
2018-07-14T15:31:06.029Z,75.90
2018-07-14T15:33:37.319Z,71.60
2018-07-14T15:36:08.739Z,74.30
2018-07-14T15:38:40.044Z,71.80
2018-07-14T15:41:11.495Z,73.10
2018-07-14T15:43:43.442Z,72.30
2018-07-14T15:46:14.773Z,73.40
2018-07-14T15:48:45.789Z,70.80
2018-07-14T15:51:16.870Z,72.30
2018-07-14T15:53:48.376Z,69.10
2018-07-14T15:56:19.456Z,71.60
2018-07-14T15:58:50.579Z,73.60
2018-07-14T16:01:21.699Z,74.10
2018-07-14T16:03:52.848Z,69.70
2018-07-14T16:06:24.004Z,70.80
2018-07-14T16:08:55.267Z,72.40
2018-07-14T16:11:26.827Z,71.50
2018-07-14T16:13:58.591Z,67.20
2018-07-14T16:16:29.726Z,66.70
2018-07-14T16:19:01.848Z,67.70
2018-07-14T16:21:33.199Z,67.50
2018-07-14T16:24:05.742Z,68.40
2018-07-14T16:26:36.764Z,69.00
2018-07-14T16:29:07.992Z,64.30
2018-07-14T16:31:40.117Z,63.00
2018-07-14T16:34:11.752Z,64.70
2018-07-14T16:36:43.217Z,63.90
2018-07-14T16:39:14.591Z,65.00
2018-07-14T16:41:46.546Z,66.70
2018-07-14T16:44:17.957Z,63.30
2018-07-14T16:46:49.250Z,63.00
2018-07-14T16:49:20.578Z,61.00
2018-07-14T16:51:52.364Z,62.40
2018-07-14T16:54:23.917Z,62.40
2018-07-14T16:56:55.910Z,64.10
2018-07-14T16:59:27.192Z,62.00
2018-07-14T17:01:58.694Z,62.60
2018-07-14T17:04:30.347Z,62.60
2018-07-14T17:07:01.662Z,61.70
2018-07-14T17:09:34.215Z,59.40
2018-07-14T17:12:05.743Z,61.30
2018-07-14T17:14:37.937Z,59.50
2018-07-14T17:17:09.513Z,59.40
2018-07-14T17:19:42.152Z,57.50
2018-07-14T17:22:15.664Z,56.90
2018-07-14T17:24:46.931Z,57.50
2018-07-14T17:27:18.147Z,57.40
2018-07-14T17:32:22.786Z,58.30
2018-07-14T17:34:53.834Z,59.40
2018-07-14T17:37:25.015Z,58.40
2018-07-14T17:39:56.144Z,57.80
2018-07-14T17:42:27.457Z,58.90
2018-07-14T17:44:58.615Z,57.80
2018-07-14T17:47:30.141Z,54.90
2018-07-14T17:50:02.531Z,54.40
2018-07-14T17:52:35.656Z,52.30
2018-07-14T17:55:07.841Z,52.10
2018-07-14T17:57:39.502Z,52.80
2018-07-14T18:00:10.731Z,52.00
2018-07-14T18:02:42.043Z,54.10
2018-07-14T18:05:13.276Z,54.40
2018-07-14T18:07:44.218Z,55.10
2018-07-14T18:10:15.458Z,57.50
2018-07-14T18:12:46.557Z,60.90
2018-07-14T18:15:18.311Z,59.30
2018-07-14T18:17:49.674Z,59.20
2018-07-14T18:20:20.956Z,58.50
2018-07-14T18:25:22.820Z,57.00
2018-07-14T18:27:54.331Z,57.90
2018-07-14T18:30:25.273Z,56.20
2018-07-14T18:32:56.349Z,55.20
2018-07-14T18:35:27.506Z,55.70
2018-07-14T18:37:58.784Z,54.10
2018-07-14T18:40:30.303Z,53.00
2018-07-14T18:43:01.565Z,51.90
2018-07-14T18:45:33.095Z,53.60
2018-07-14T18:48:04.732Z,54.30
2018-07-14T18:50:36.244Z,54.60
2018-07-14T18:53:08.579Z,53.20
2018-07-14T18:55:39.873Z,52.30
2018-07-14T18:58:11.579Z,53.30
2018-07-14T19:00:42.707Z,52.60
2018-07-14T19:03:14.000Z,51.10
2018-07-14T19:05:45.070Z,50.20
2018-07-14T19:08:16.392Z,51.20
2018-07-14T19:14:09.215Z,57.40
2018-07-14T19:18:00.730Z,54.10
2018-07-14T19:20:31.779Z,57.00
2018-07-14T19:23:02.846Z,58.20
2018-07-14T19:25:33.867Z,56.40
2018-07-14T19:28:05.362Z,56.10
2018-07-14T19:30:36.840Z,52.50
2018-07-14T19:33:08.315Z,54.80
2018-07-14T19:35:39.736Z,57.10
2018-07-14T19:38:10.983Z,55.20
2018-07-14T19:40:42.525Z,55.90
2018-07-14T19:43:14.102Z,55.00
2018-07-14T19:45:45.726Z,55.60
2018-07-14T19:48:17.266Z,53.30
2018-07-14T19:50:48.907Z,54.70
2018-07-14T19:53:19.972Z,55.10
2018-07-14T19:55:51.239Z,55.30
2018-07-14T19:58:22.398Z,55.00
2018-07-14T20:00:54.153Z,55.00
2018-07-14T20:03:25.661Z,55.30
2018-07-14T20:05:56.784Z,56.00
2018-07-14T20:08:28.325Z,51.30
2018-07-14T20:12:22.228Z,51.40
2018-07-14T20:14:53.470Z,52.00
2018-07-14T20:17:24.565Z,52.80
2018-07-14T20:19:57.182Z,52.60
2018-07-14T20:22:28.682Z,52.00
2018-07-14T20:24:59.852Z,53.00
2018-07-14T20:27:31.129Z,52.60
2018-07-14T20:30:02.443Z,53.80
2018-07-14T20:32:33.826Z,51.40
2018-07-14T20:35:05.017Z,51.80
2018-07-14T20:37:36.439Z,54.30
2018-07-14T20:40:08.484Z,53.60
2018-07-14T20:42:39.661Z,54.10
2018-07-14T20:45:10.750Z,53.90
2018-07-14T20:47:41.894Z,52.70
2018-07-14T20:50:13.080Z,52.00
2018-07-14T20:52:44.312Z,53.40
2018-07-14T20:55:15.700Z,53.50
2018-07-14T20:57:46.800Z,55.70
2018-07-14T21:00:17.865Z,55.50
2018-07-14T21:02:48.919Z,53.50
2018-07-14T21:05:20.327Z,53.70
2018-07-14T21:07:51.526Z,52.10
2018-07-14T21:10:22.785Z,53.00
2018-07-14T21:12:53.949Z,51.40
2018-07-14T21:15:25.143Z,52.00
2018-07-14T21:17:56.485Z,50.90
2018-07-14T21:20:27.584Z,51.30
2018-07-14T21:22:58.797Z,50.40
2018-07-14T21:25:30.023Z,50.90
2018-07-14T21:28:02.136Z,50.60
2018-07-14T21:30:33.395Z,51.80
2018-07-14T21:33:04.589Z,51.90
2018-07-14T21:35:36.036Z,49.50
2018-07-14T21:38:07.170Z,48.20
2018-07-14T21:40:38.453Z,47.30
2018-07-14T21:43:09.553Z,48.10
2018-07-14T21:48:11.121Z,48.60
2018-07-14T21:50:42.275Z,48.40
2018-07-14T21:53:13.583Z,47.10
2018-07-14T21:55:44.696Z,49.40
2018-07-14T21:58:15.775Z,49.40
2018-07-14T22:00:51.659Z,48.80
2018-07-14T22:03:22.861Z,45.60
2018-07-14T22:05:54.069Z,46.20
2018-07-14T22:08:25.446Z,46.70
2018-07-14T22:10:58.007Z,46.20
2018-07-14T22:13:29.136Z,47.40
2018-07-14T22:16:00.412Z,46.80
2018-07-14T22:18:31.636Z,48.10
2018-07-14T22:21:03.700Z,49.50
2018-07-14T22:23:34.862Z,47.70
2018-07-14T22:26:06.196Z,47.50
2018-07-14T22:28:37.406Z,47.00
2018-07-14T22:31:08.671Z,48.10
2018-07-14T22:33:41.210Z,48.30
2018-07-14T22:36:12.395Z,47.90
2018-07-14T22:38:43.456Z,47.70
2018-07-14T22:41:14.577Z,48.10
2018-07-14T22:43:45.863Z,48.90
2018-07-14T22:46:16.930Z,49.60
2018-07-14T22:48:48.024Z,49.60
2018-07-14T22:51:19.246Z,50.20
2018-07-14T22:53:50.527Z,51.50
2018-07-14T22:56:21.675Z,50.40
2018-07-14T22:58:52.775Z,49.00
2018-07-14T23:01:23.991Z,48.90
2018-07-14T23:03:55.344Z,49.90
2018-07-14T23:06:26.791Z,49.00
2018-07-14T23:08:57.972Z,49.80
2018-07-14T23:11:29.160Z,49.30
2018-07-14T23:14:00.312Z,49.70
2018-07-14T23:16:32.884Z,49.80
2018-07-14T23:19:04.095Z,50.40
2018-07-14T23:21:35.376Z,50.20
2018-07-14T23:24:06.580Z,50.60
2018-07-14T23:26:38.140Z,50.80
2018-07-14T23:29:09.632Z,50.80
2018-07-14T23:31:41.132Z,50.30
2018-07-14T23:34:12.311Z,51.60
2018-07-14T23:36:43.674Z,52.30
2018-07-14T23:39:14.941Z,52.40
2018-07-14T23:41:46.173Z,53.80
2018-07-14T23:44:17.391Z,54.30
2018-07-14T23:46:48.781Z,53.40
2018-07-14T23:49:20.420Z,55.00
2018-07-14T23:51:51.637Z,55.50
2018-07-14T23:54:22.796Z,56.30
2018-07-14T23:56:54.048Z,57.60
2018-07-14T23:59:25.276Z,58.90
